Tiempo atmosférico en la estación meteorológica de Boadilla Fuente San Esteban, Salamanca (785 m.)



Fecha
DESCASC
Temp. máxima en grados centígrados (hora)
DESCASC
Temp. mínima en grados centígrados (hora)
DESCASC
Temp. media en grados centígrados
DESCASC
Racha de viento máxima en m/sg (hora)
DESCASC
Velocidad máxima media en intervalos de 10 minutos(hora)
DESCASC
Precipitaciones diarias en mm
DESCASC
Precipitaciones de 00:00 a 06:00 en mm
DESCASC
Precipitaciones de 06:00 a 12:00 en mm
DESCASC
Precipitaciones de 12:00 a 18:00 en mm
DESCASC
Precipitaciones de 18:00 a 24:00 en mm
DESCASC
11-12-2019 7.6 (14:30) 2 (04:00) 4.8 10.83 (15:10) 6.67 (12:00) 2.4 0 2.4 0 0
08-12-2019 10.4 (16:30) 2.6 (00:00) 6.5 5.83 (12:40) 3.89 (13:00) 2.6 0 0 2.6 0
07-12-2019 12.7 (16:30) -1.1 (-00:0) 5.8 3.89 (00:10) 3.33 (23:40) 0.2 0.2 0 0 0
06-12-2019 7 (17:30) -0.9 (-00:0) 3.1 4.44 (21:50) 3.61 (21:50) 0 0 0 0 0
05-12-2019 8.8 (16:10) 1 (00:00) 4.9 9.17 (12:30) 5.83 (12:50) 0 0 0 0 0
04-12-2019 6.9 (15:50) -1.6 (01:50) 2.7 6.67 (11:30) 4.72 (11:30) 0 0 0 0 0
03-12-2019 5.4 (16:10) -1 (-00:0) 2.2 9.44 (00:50) 6.67 (00:40) 0 0 0 0 0
02-12-2019 8.9 (15:50) 2.2 (00:00) 5.5 15.28 (14:30) 12.22 (14:30) 0 0 0 0 0
01-12-2019 10.9 (14:50) 4.8 (00:00) 7.8 9.44 (21:30) 6.67 (21:30) 4.2 0.8 3 0.4 0
30-11-2019 13 (11:30) 5 (00:00) 9 14.17 (11:10) 8.61 (11:10) 8.6 0 0.2 8.4 0
29-11-2019 13.9 (16:10) 11.3 (00:00) 12.6 10.28 (00:40) 6.39 (00:30) 3.8 1.4 2.2 0.2 0
28-11-2019 12.8 (14:00) 8.4 (00:00) 10.6 13.33 (14:30) 8.33 (14:50) 0 0 0 0 0
27-11-2019 11.9 (14:40) 6.2 (00:00) 9 12.78 (14:30) 7.78 (01:10) 0.2 0.2 0 0 0
26-11-2019 15.5 (13:20) 9.1 (00:00) 12.3 16.67 (16:50) 10.28 (16:50) 3 0 1 0.2 1.8
25-11-2019 13.6 (13:20) 8.7 (08:10) 11.2 15.56 (00:10) 9.44 (00:10) 0.6 0.6 0 0 0
24-11-2019 11.2 (23:40) 2.6 (00:00) 6.9 14.72 (23:00) 9.44 (23:30) 0.2 0 0.2 0 0
23-11-2019 9.4 (14:30) 4.2 (00:00) 6.8 14.72 (01:00) 7.78 (03:00) 0 0 0 0 0
22-11-2019 12.3 (13:20) 6.2 (00:00) 9.3 17.22 (10:50) 11.11 (17:00) 5.8 0 2 1 2.8
21-11-2019 9.8 (16:00) 4.2 (00:00) 7 8.06 (13:30) 5.28 (03:20) 5.8 0.6 1.8 2.6 0.8
20-11-2019 7.3 (14:50) 4 (23:00) 5.7 8.61 (15:10) 5.28 (15:10) 9.4 2.2 7.2 0 0
19-11-2019 9.4 (14:20) -0.1 (00:00) 4.6 5.28 (14:50) 3.33 (14:50) 0 0 0 0 0
18-11-2019 9.3 (16:10) 1.6 (00:00) 5.5 6.39 (15:20) 2.78 (23:10) -- 0 0 -- 0
17-11-2019 9.7 (14:30) 3.2 (00:00) 6.4 9.72 (16:00) 6.11 (12:50) 2.8 0 0.8 1.6 0.4
16-11-2019 6.7 (15:50) -1 (-00:0) 2.8 7.22 (12:50) 4.17 (16:00) 0 0 0 0 0
15-11-2019 6.3 (15:30) 0.8 (00:00) 3.6 11.39 (12:30) 6.94 (13:00) 0 0 0 0 0

Gráficas

Temp. máximas Temp. mínimas Temp. medias Precipitaciones Rachas de viento máximas Velocidades máximas media en intervalos de 10 minutos

Datos horarios

Fecha y hora oficial Temperatura (ºC) Velocidad del viento (km/h) Dirección del viento Racha (km/h) Dirección de racha Precipitación (mm) Presión (hPa) Tendencia (hPa) Humedad (%)
2019-12-14 23:00:00 9 16 Sudoeste 28 Sudoeste 0 -- -- 85
2019-12-14 22:00:00 9.2 17 Sur 27 Sur 0 -- -- 85
2019-12-14 21:00:00 9.3 14 Sudoeste 23 Sudoeste 0 -- -- 83
2019-12-14 20:00:00 9.2 14 Sudoeste 24 Sur 0 -- -- 87
2019-12-14 19:00:00 9 16 Sur 23 Sudoeste 0 -- -- 89
2019-12-14 18:00:00 9.2 12 Oeste 30 Sudoeste 0 -- -- 89
2019-12-14 17:00:00 10.4 14 Sudoeste 26 Sudoeste 0 -- -- 77
2019-12-14 16:00:00 10.6 13 Sudoeste 26 Sudoeste 0 -- -- 80
2019-12-14 15:00:00 10.5 16 Sudoeste 27 Sudoeste 0 -- -- 83
2019-12-14 14:00:00 9.7 15 Sudoeste 27 Oeste 0 -- -- 89
2019-12-14 13:00:00 10 16 Sudoeste 26 Sudoeste 0 -- -- 83
2019-12-14 12:00:00 9.4 13 Sudoeste 23 Sudoeste 0 -- -- 88
2019-12-14 11:00:00 8.3 12 Sudoeste 21 Sudoeste 0 -- -- 96
2019-12-14 10:00:00 8 12 Sudoeste 19 Sudoeste 0 -- -- 97
2019-12-14 09:00:00 7.9 9 Sudoeste 22 Oeste 0 -- -- 97
2019-12-14 08:00:00 7.7 11 Sudoeste 18 Sudoeste 0 -- -- 97
2019-12-14 07:00:00 7.8 9 Sudoeste 17 Sudoeste 0 -- -- 94
2019-12-14 06:00:00 7.9 11 Sudoeste 21 Sudoeste 0 -- -- 93
2019-12-14 05:00:00 7.9 12 Sudoeste 27 Sudoeste 0 -- -- 93
2019-12-14 04:00:00 8 12 Sudoeste 28 Sudoeste 0 -- -- 92
2019-12-14 03:00:00 8.1 17 Sudoeste 27 Sudoeste 0 -- -- 91
2019-12-14 02:00:00 8.3 17 Sudoeste 30 Sudoeste 0 -- -- 92
2019-12-14 01:00:00 8.3 11 Sudoeste 32 Oeste 0 -- -- 89
2019-12-14 00:00:00 8.9 19 Sudoeste 29 Oeste 0 -- -- 93
2019-12-13 23:00:00 9.3 15 Oeste 32 Sudoeste 0 -- -- 93
2019-12-13 22:00:00 9.5 19 Oeste 31 Sudoeste 0 -- -- 95
2019-12-13 21:00:00 9.7 20 Sudoeste 33 Sudoeste 0 -- -- 94
2019-12-13 20:00:00 9.8 22 Oeste 31 Oeste 0 -- -- 92
2019-12-13 19:00:00 10.3 17 Sudoeste 28 Sudoeste 0 -- -- 93
2019-12-13 18:00:00 10.6 14 Sudoeste 32 Sudoeste 0 -- -- 93
2019-12-13 17:00:00 10.9 19 Sudoeste 32 Sudoeste 0 -- -- 91
2019-12-13 16:00:00 11.1 19 Sudoeste 38 Sudoeste 0 -- -- 90
2019-12-13 15:00:00 11.2 22 Sudoeste 36 Oeste 0 -- -- 92
2019-12-13 14:00:00 10.7 21 Oeste 38 Sudoeste 0 -- -- 94
2019-12-13 13:00:00 10.5 22 Sudoeste 36 Sudoeste 0 -- -- 92
2019-12-13 12:00:00 10.7 24 Sudoeste 40 Sudoeste 0 -- -- 90
2019-12-13 11:00:00 10.1 22 Sudoeste 33 Sudoeste 0 -- -- 90
2019-12-13 10:00:00 9.6 15 Sudoeste 25 Sudoeste 0 -- -- 92
2019-12-13 09:00:00 9.3 13 Sudoeste 31 Oeste 0 -- -- 91
2019-12-13 08:00:00 9.3 19 Oeste 36 Oeste 0 -- -- 91
2019-12-13 07:00:00 9.5 18 Oeste 37 Oeste 0 -- -- 92
2019-12-13 06:00:00 9.6 19 Sudoeste 39 Oeste 0 -- -- 90
2019-12-13 05:00:00 10.1 20 Oeste 40 Oeste 0 -- -- 90
2019-12-13 04:00:00 10.2 22 Sudoeste 40 Oeste 0 -- -- 94
2019-12-13 03:00:00 10.1 25 Oeste 45 Oeste 0 -- -- 96
2019-12-13 02:00:00 10.8 27 Oeste 42 Oeste 0 -- -- 91
2019-12-13 01:00:00 10.8 23 Oeste 38 Oeste 0 -- -- 92
2019-12-13 00:00:00 10.6 20 Oeste 38 Sudoeste 0 -- -- 93
2019-12-12 23:00:00 10.5 22 Oeste 39 Oeste 0 -- -- 94
2019-12-12 22:00:00 10.2 23 Oeste 38 Oeste 0 -- -- 95
2019-12-12 21:00:00 10.1 24 Oeste 46 Oeste 0 -- -- 95
2019-12-12 20:00:00 9.9 19 Oeste 43 Sudoeste 0.2 -- -- 95
2019-12-12 19:00:00 9.3 22 Sudoeste 38 Sudoeste 0 -- -- 97
2019-12-12 18:00:00 8.8 25 Sudoeste 42 Sudoeste 0.4 -- -- 97
2019-12-12 17:00:00 8.2 25 Sudoeste 44 Sudoeste 0.2 -- -- 97
2019-12-12 16:00:00 7.8 30 Sudoeste 50 Sudoeste 0.2 -- -- 95
2019-12-12 15:00:00 7.8 28 Sudoeste 46 Sudoeste 0 -- -- 91
2019-12-12 14:00:00 7.2 24 Sudoeste 41 Oeste 0.2 -- -- 96
2019-12-12 13:00:00 6.5 19 Sudoeste 35 Sudoeste 0 -- -- 96
2019-12-12 12:00:00 6.3 21 Sudoeste 35 Sudoeste 0 -- -- 96
2019-12-12 11:00:00 5.8 18 Sudoeste 32 Sudoeste 0.4 -- -- 97
2019-12-12 10:00:00 5.8 17 Sudoeste 30 Sudoeste 0 -- -- 93
2019-12-12 09:00:00 5.3 15 Sudoeste 32 Sudoeste 0 -- -- 93
2019-12-12 08:00:00 5.4 20 Sudoeste 35 Sudoeste 0 -- -- 93
2019-12-12 07:00:00 5 14 Sudoeste 26 Sudoeste 0 -- -- 94
2019-12-12 06:00:00 4.6 13 Sudoeste 24 Sudoeste 0 -- -- 96
2019-12-12 05:00:00 4.3 15 Sudoeste 24 Sur 0.2 -- -- 96
2019-12-12 04:00:00 3.8 12 Sudoeste 19 Sudoeste 0 -- -- 97
2019-12-12 03:00:00 3.6 13 Sudoeste 22 Sudoeste -- -- -- 97
2019-12-12 02:00:00 3.7 13 Sudoeste 20 Sudoeste 0 -- -- 96
2019-12-12 01:00:00 3.8 15 Sudoeste 24 Sudoeste 0 -- -- 95
2019-12-12 00:00:00 3.2 13 Sudoeste 18 Sudoeste 0 -- -- 95
2019-12-11 23:00:00 2.7 8 Sudoeste 15 Sudoeste 0 -- -- 92
2019-12-11 22:00:00 2.7 5 Sur 17 Oeste 0 -- -- 90
2019-12-11 21:00:00 3.1 9 Oeste 17 Oeste 0 -- -- 88
2019-12-11 20:00:00 3.9 12 Oeste 28 Sudoeste 0 -- -- 83
2019-12-11 19:00:00 4 2 Sudoeste 16 Oeste 0 -- -- 78
2019-12-11 18:00:00 5.8 13 Noroeste 25 Noroeste 0 -- -- 70
2019-12-11 17:00:00 6.9 18 Noroeste 36 Noroeste 0 -- -- 65
2019-12-11 16:00:00 7.4 23 Noroeste 39 Noroeste 0 -- -- 64
2019-12-11 15:00:00 7.6 21 Noroeste 38 Oeste 0 -- -- 69
2019-12-11 14:00:00 7.3 23 Noroeste 37 Noroeste 0 -- -- 72
2019-12-11 13:00:00 7.1 22 Noroeste 35 Noroeste 0 -- -- 75
2019-12-11 12:00:00 6.6 24 Noroeste 36 Oeste 0 -- -- 82
2019-12-11 11:00:00 5.9 18 Noroeste 28 Oeste 0 -- -- 91
2019-12-11 10:00:00 5.1 16 Oeste 27 Noroeste 0 -- -- 97
2019-12-11 09:00:00 4.8 12 Oeste 22 Oeste 1 -- -- 97
2019-12-11 08:00:00 4.4 8 Noroeste 14 Oeste 1.4 -- -- 90
2019-12-11 07:00:00 4.8 4 Oeste 8 Sur 0 -- -- 78
2019-12-11 06:00:00 3.2 0 Calma 13 Sur 0 -- -- 86
2019-12-11 05:00:00 4.4 9 Sur 12 Sur 0 -- -- 69
2019-12-11 04:00:00 2 3 Sudeste 5 Sur 0 -- -- 84
2019-12-11 03:00:00 2.5 3 Sur 6 Sur 0 -- -- 84
2019-12-11 02:00:00 3.9 2 Sur 8 Sur 0 -- -- 73
2019-12-11 01:00:00 3.9 0 Calma 8 Sur 0 -- -- 80
2019-12-11 00:00:00 4.9 7 Sur 12 Sur 0 -- -- 74
2019-12-10 23:00:00 4.4 7 Sur 10 Sur 0 -- -- 80
2019-12-10 22:00:00 5.1 4 Sudoeste 13 Sur 0 -- -- 81
2019-12-10 21:00:00 5.5 9 Sur 12 Sur 0 -- -- 84
2019-12-10 20:00:00 5.9 6 Sur 8 Sur 0 -- -- 90
2019-12-10 19:00:00 6.4 3 Oeste 5 Oeste 0 -- -- 89
2019-12-10 18:00:00 7.8 2 Sudoeste 5 Oeste 0 -- -- 85
2019-12-10 17:00:00 8.8 3 Noroeste 3 Noroeste 0 -- -- 78
2019-12-10 16:00:00 9 0 Calma 5 Sudeste 0 -- -- 79
2019-12-10 15:00:00 9.2 4 Sudeste 10 Este 0 -- -- 70
2019-12-10 14:00:00 8.1 3 Sudoeste 6 Sudoeste 0 -- -- 78
2019-12-10 13:00:00 6.2 0 Calma 7 Noroeste 0 -- -- 83
2019-12-10 12:00:00 4.8 3 Nordeste 6 Norte 0 -- -- 85
2019-12-10 11:00:00 3 0 Calma 4 Este 0.2 -- -- 98
2019-12-10 10:00:00 -0.2 3 Sur 5 Oeste 0 -- -- 99
2019-12-10 09:00:00 -1 2 Sur 7 Noroeste 0 -- -- 99
2019-12-10 08:00:00 -1 3 Norte 6 Este 0 -- -- 97
2019-12-10 07:00:00 -0.7 4 Este 10 Este 0 -- -- 97
2019-12-10 06:00:00 0.8 14 Este 18 Este 0 -- -- 98
2019-12-10 05:00:00 -0.4 5 Este 8 Este 0 -- -- 98
2019-12-10 04:00:00 -1.1 3 Nordeste 4 Nordeste 0 -- -- 96
2019-12-10 03:00:00 0.4 0 Calma 6 Sudeste 0 -- -- 95
2019-12-10 02:00:00 1.1 4 Sudeste 6 Sudeste 0 -- -- 95
2019-12-10 01:00:00 1.8 3 Sudeste 13 Este 0 -- -- 93
2019-12-10 00:00:00 2.4 5 Sudeste 10 Este 0 -- -- 94
2019-12-09 23:00:00 2.6 6 Este 8 Este 0 -- -- 93
2019-12-09 22:00:00 3.4 3 Este 4 Oeste 0 -- -- 91
2019-12-09 21:00:00 4.8 4 Oeste 6 Oeste 0 -- -- 88
2019-12-09 20:00:00 5.2 3 Oeste 8 Oeste 0 -- -- 89
2019-12-09 19:00:00 6.7 4 Sur 5 Sudoeste 0 -- -- 87
2019-12-09 18:00:00 8.6 3 Oeste 6 Noroeste 0 -- -- 82
2019-12-09 17:00:00 9.9 3 Sudoeste 15 Oeste 0 -- -- 76
2019-12-09 16:00:00 10.3 10 Oeste 17 Oeste 0 -- -- 68
2019-12-09 15:00:00 9.7 8 Oeste 16 Sudoeste 0 -- -- 80
2019-12-09 14:00:00 9 10 Oeste 16 Oeste 0 -- -- 81
2019-12-09 13:00:00 7.4 4 Oeste 9 Sudoeste 0 -- -- 88
2019-12-09 12:00:00 6.3 3 Sur 9 Sudoeste 0 -- -- 93
2019-12-09 11:00:00 5 4 Sudoeste 9 Sudoeste 0 -- -- 96
2019-12-09 10:00:00 4.7 5 Sur 8 Sur 0 -- -- 97
2019-12-09 09:00:00 4.4 2 Noroeste 10 Oeste 0 -- -- 98
2019-12-09 08:00:00 4.6 0 Calma 8 Noroeste 0 -- -- 99
2019-12-09 07:00:00 4.9 6 Oeste 11 Oeste 0 -- -- 98
2019-12-09 06:00:00 5.2 3 Oeste 6 Oeste 0 -- -- 99
2019-12-09 05:00:00 4.2 0 Calma 4 Sur 0 -- -- 98
2019-12-09 04:00:00 6.4 3 Sudoeste 4 Sudoeste 0 -- -- 97
2019-12-09 03:00:00 7.7 0 Calma 10 Noroeste 0 -- -- 98
2019-12-09 02:00:00 8.1 4 Noroeste 12 Noroeste 0 -- -- 99
2019-12-09 01:00:00 7.9 4 Oeste 10 Oeste 0 -- -- 100
2019-12-09 00:00:00 8.4 4 Oeste 10 Sudoeste 0 -- -- 99
2019-12-08 23:00:00 9.2 5 Oeste 11 Oeste 0 -- -- 100
2019-12-08 22:00:00 9.9 4 Oeste 15 Noroeste 0 -- -- 100
2019-12-08 21:00:00 10.3 8 Oeste 14 Oeste 0 -- -- 100
2019-12-08 20:00:00 10.3 6 Oeste 16 Oeste 0 -- -- 100
2019-12-08 19:00:00 10.1 9 Sudoeste 17 Sudoeste 0 -- -- 100
2019-12-08 18:00:00 10.1 6 Sudoeste 12 Sudoeste 0 -- -- 99
2019-12-08 17:00:00 10.3 7 Sudoeste 15 Sudoeste 0 -- -- 99
2019-12-08 16:00:00 10.3 8 Sudoeste 16 Sudoeste 0.2 -- -- 99
2019-12-08 15:00:00 10 8 Sudoeste 16 Oeste 1.4 -- -- 98
2019-12-08 14:00:00 10 10 Oeste 20 Sudoeste 0.4 -- -- 97
2019-12-08 13:00:00 9.9 14 Sudoeste 21 Sudoeste 0.6 -- -- 96
2019-12-08 12:00:00 9.5 10 Sudoeste 17 Sudoeste 0 -- -- 97
2019-12-08 11:00:00 8.7 5 Sudoeste 14 Sur 0 -- -- 92
2019-12-08 10:00:00 7.4 6 Sur 11 Sur 0 -- -- 96
2019-12-08 09:00:00 4.7 0 Calma 6 Noroeste 0 -- -- 96
2019-12-08 08:00:00 4.7 3 Oeste 10 Noroeste 0 -- -- 95
2019-12-08 07:00:00 4.9 0 Calma 11 Sur 0 -- -- 91
2019-12-08 06:00:00 4.7 10 Sur 14 Sur 0 -- -- 96
2019-12-08 05:00:00 2.7 9 Sur 14 Sudeste 0 -- -- 96
2019-12-08 04:00:00 3.1 11 Sur 13 Sudeste 0 -- -- 96
2019-12-08 03:00:00 2.8 9 Sur 11 Sur 0 -- -- 95
2019-12-08 02:00:00 3.6 4 Sur 8 Sudoeste 0 -- -- 93
2019-12-08 01:00:00 4.1 5 Sudoeste 8 Sudoeste 0 -- -- 92
2019-12-08 00:00:00 4 7 Sur 14 Sudeste 0 -- -- 93
2019-12-07 23:00:00 3.9 9 Sur 12 Sudeste 0 -- -- 92
2019-12-07 22:00:00 4.3 3 Sur 10 Sudeste 0 -- -- 92
2019-12-07 21:00:00 4.8 4 Sur 5 Sudeste 0 -- -- 90
2019-12-07 20:00:00 5.9 3 Sur 5 Sudoeste 0 -- -- 89
2019-12-07 19:00:00 6.7 4 Sur 4 Sudoeste 0 -- -- 86
2019-12-07 18:00:00 10.4 3 Sudoeste 4 Sudoeste 0 -- -- 73
2019-12-07 17:00:00 12.5 2 Oeste 9 Sudoeste 0 -- -- 67
2019-12-07 16:00:00 12.4 4 Noroeste 12 Noroeste 0 -- -- 69
2019-12-07 15:00:00 11.9 4 Oeste 12 Noroeste 0 -- -- 73
2019-12-07 14:00:00 10.4 7 Oeste 14 Oeste 0 -- -- 78
2019-12-07 13:00:00 9.5 3 Oeste 9 Oeste 0 -- -- 83
2019-12-07 12:00:00 7.3 0 Calma 4 Nordeste 0 -- -- 95
2019-12-07 11:00:00 5.1 0 Calma 8 Sudeste 0 -- -- 100
2019-12-07 10:00:00 2.3 7 Sudeste 10 Sudeste 0 -- -- 100
2019-12-07 09:00:00 -1 2 Sudeste 8 Oeste 0 -- -- 100
2019-12-07 08:00:00 -0.4 2 Sudeste 9 Este 0 -- -- 100
2019-12-07 07:00:00 0.2 4 Nordeste 12 Norte 0 -- -- 100
2019-12-07 06:00:00 0.6 3 Este 4 Este 0 -- -- 100
2019-12-07 05:00:00 0.8 2 Este 12 Sudeste 0 -- -- 100
2019-12-07 04:00:00 -0.4 3 Este 6 Este 0 -- -- 100
2019-12-07 03:00:00 -0.5 4 Este 5 Este 0.2 -- -- 100
2019-12-07 02:00:00 0.1 4 Noroeste 8 Noroeste 0 -- -- 99
2019-12-07 01:00:00 1.2 0 Calma 14 Sudeste 0 -- -- 100
2019-12-07 00:00:00 2 8 Sudeste 11 Sudeste 0 -- -- 99
2019-12-06 23:00:00 1.6 2 Sur 14 Sudeste 0 -- -- 99
2019-12-06 22:00:00 2.1 11 Sudeste 16 Sudeste 0 -- -- 100
2019-12-06 21:00:00 2.1 4 Sudeste 5 Sudeste 0 -- -- 99
2019-12-06 20:00:00 2.2 0 Calma 12 Noroeste 0 -- -- 98
2019-12-06 19:00:00 3.7 3 Sudeste 7 Sudeste 0 -- -- 96
2019-12-06 18:00:00 5.9 4 Oeste 6 Oeste 0 -- -- 93
2019-12-06 17:00:00 6.7 0 Calma 6 Oeste 0 -- -- 96
2019-12-06 16:00:00 6.6 0 Calma 6 Este 0 -- -- 99
2019-12-06 15:00:00 5.2 0 Calma 6 Este 0 -- -- 100
2019-12-06 14:00:00 3.9 0 Calma 5 Nordeste 0 -- -- 100
2019-12-06 13:00:00 2.9 4 Nordeste 6 Noroeste 0 -- -- 100
2019-12-06 12:00:00 2 0 Calma 8 Sudeste 0 -- -- 100
2019-12-06 11:00:00 1.2 5 Sudeste 10 Sudeste 0 -- -- 100
2019-12-06 10:00:00 0 0 Calma 11 Sudeste 0 -- -- 100
2019-12-06 09:00:00 -0.5 6 Este 8 Este 0 -- -- 100
2019-12-06 08:00:00 -0.1 0 Calma 11 Este 0 -- -- 99
2019-12-06 07:00:00 -0.4 5 Nordeste 8 Nordeste 0 -- -- 99
2019-12-06 06:00:00 0.6 5 Nordeste 13 Este 0 -- -- 98
2019-12-06 05:00:00 0.3 3 Nordeste 6 Nordeste 0 -- -- 97
2019-12-06 04:00:00 1.1 6 Nordeste 13 Este 0 -- -- 96
2019-12-06 03:00:00 2 9 Este 15 Este 0 -- -- 97
2019-12-06 02:00:00 2.5 4 Nordeste 10 Nordeste 0 -- -- 96
2019-12-06 01:00:00 2.5 4 Norte 14 Nordeste 0 -- -- 94
2019-12-06 00:00:00 3.3 15 Nordeste 17 Nordeste 0 -- -- 95
2019-12-05 23:00:00 5 12 Este 21 Este 0 -- -- 90
2019-12-05 22:00:00 5.4 13 Este 22 Este 0 -- -- 89
2019-12-05 21:00:00 5 8 Nordeste 16 Este 0 -- -- 92
2019-12-05 20:00:00 6.1 12 Nordeste 20 Este 0 -- -- 90
2019-12-05 19:00:00 6.9 12 Este 19 Este 0 -- -- 87
2019-12-05 18:00:00 7.2 7 Nordeste 22 Nordeste 0 -- -- 85
2019-12-05 17:00:00 8.3 15 Este 28 Este 0 -- -- 82
2019-12-05 16:00:00 8.6 15 Este 29 Nordeste 0 -- -- 79
2019-12-05 15:00:00 8.3 19 Este 28 Este 0 -- -- 81
2019-12-05 14:00:00 7.8 20 Nordeste 28 Nordeste 0 -- -- 80
2019-12-05 13:00:00 7.4 19 Nordeste 33 Nordeste 0 -- -- 83
2019-12-05 12:00:00 6.2 19 Este 30 Este 0 -- -- 86
2019-12-05 11:00:00 6 10 Nordeste 31 Este 0 -- -- 88
2019-12-05 10:00:00 5.8 18 Nordeste 32 Nordeste 0 -- -- 88
2019-12-05 09:00:00 5.6 14 Nordeste 28 Nordeste 0 -- -- 89
2019-12-05 08:00:00 5.4 12 Nordeste 26 Este 0 -- -- 91
2019-12-05 07:00:00 5.4 15 Nordeste 26 Nordeste 0 -- -- 91
2019-12-05 06:00:00 4.9 16 Este 26 Nordeste 0 -- -- 91
2019-12-05 05:00:00 3.7 15 Nordeste 21 Nordeste 0 -- -- 95
2019-12-05 04:00:00 2.7 15 Este 25 Este 0 -- -- 93
2019-12-05 03:00:00 1.2 10 Nordeste 18 Nordeste 0 -- -- 95
2019-12-05 02:00:00 1.7 9 Nordeste 15 Este 0 -- -- 98
2019-12-05 01:00:00 1.8 9 Nordeste 13 Nordeste 0 -- -- 100
2019-12-05 00:00:00 1 2 Nordeste 6 Norte 0 -- -- 98
2019-12-04 23:00:00 1.3 3 Norte 6 Noroeste 0 -- -- 97
2019-12-04 22:00:00 2.4 2 Norte 12 Este 0 -- -- 95
2019-12-04 21:00:00 3.9 11 Este 16 Este 0 -- -- 97
2019-12-04 20:00:00 3.4 2 Nordeste 6 Norte 0 -- -- 94
2019-12-04 19:00:00 4.8 5 Nordeste 10 Nordeste 0 -- -- 93
2019-12-04 18:00:00 5.6 5 Nordeste 13 Nordeste 0 -- -- 91
2019-12-04 17:00:00 6 11 Nordeste 21 Este 0 -- -- 86
2019-12-04 16:00:00 6.7 14 Nordeste 20 Nordeste 0 -- -- 83
2019-12-04 15:00:00 5.1 5 Nordeste 15 Nordeste 0 -- -- 87
2019-12-04 14:00:00 4.3 10 Nordeste 19 Nordeste 0 -- -- 87
2019-12-04 13:00:00 4.4 14 Nordeste 20 Nordeste 0 -- -- 84
2019-12-04 12:00:00 3.6 9 Nordeste 24 Nordeste 0 -- -- 87
2019-12-04 11:00:00 1.4 14 Nordeste 20 Nordeste 0 -- -- 99
2019-12-04 10:00:00 -0.2 8 Nordeste 14 Este 0 -- -- 100
2019-12-04 09:00:00 -0.9 9 Nordeste 15 Nordeste 0 -- -- 99
2019-12-04 08:00:00 -1.1 7 Nordeste 14 Este 0 -- -- 98
2019-12-04 07:00:00 -1 7 Nordeste 12 Este 0 -- -- 98
2019-12-04 06:00:00 -0.9 8 Este 13 Este 0 -- -- 98
2019-12-04 05:00:00 -0.2 2 Este 9 Este 0 -- -- 97
2019-12-04 04:00:00 0.2 6 Nordeste 10 Este 0 -- -- 98
2019-12-04 03:00:00 -0.7 6 Nordeste 13 Nordeste 0 -- -- 98
2019-12-04 02:00:00 -1.2 10 Nordeste 14 Nordeste 0 -- -- 98
2019-12-04 01:00:00 -1.2 2 Nordeste 4 Norte 0 -- -- 97
2019-12-04 00:00:00 -0.3 2 Este 5 Este 0 -- -- 97
2019-12-03 23:00:00 -0.3 3 Nordeste 8 Este 0 -- -- 97
2019-12-03 22:00:00 -0.9 4 Nordeste 6 Este 0 -- -- 95
2019-12-03 21:00:00 0.2 6 Este 8 Este 0 -- -- 95
2019-12-03 20:00:00 0.6 3 Este 8 Este 0 -- -- 91
2019-12-03 19:00:00 2.2 5 Este 12 Este 0 -- -- 88
2019-12-03 18:00:00 3.5 8 Este 18 Este 0 -- -- 84
2019-12-03 17:00:00 5.2 14 Este 20 Este 0 -- -- 77
2019-12-03 16:00:00 5.1 13 Este 22 Este 0 -- -- 78
2019-12-03 15:00:00 4.2 15 Este 30 Este 0 -- -- 82
2019-12-03 14:00:00 4.1 18 Este 31 Este 0 -- -- 82
2019-12-03 13:00:00 3 17 Nordeste 33 Este 0 -- -- 86
2019-12-03 12:00:00 2.5 19 Nordeste 31 Este 0 -- -- 89
2019-12-03 11:00:00 1.6 18 Este 28 Nordeste 0 -- -- 91
2019-12-03 10:00:00 0.4 14 Nordeste 23 Nordeste 0 -- -- 97
2019-12-03 09:00:00 -0.5 10 Este 19 Este 0 -- -- 96
2019-12-03 08:00:00 -0.6 12 Este 19 Nordeste 0 -- -- 96
2019-12-03 07:00:00 -0.5 11 Este 19 Este 0 -- -- 95
2019-12-03 06:00:00 -0.5 11 Este 16 Este 0 -- -- 95
2019-12-03 05:00:00 -0.3 9 Este 22 Nordeste 0 -- -- 94
2019-12-03 04:00:00 0.2 14 Nordeste 20 Nordeste 0 -- -- 92
2019-12-03 03:00:00 0.5 12 Nordeste 25 Nordeste 0 -- -- 91
2019-12-03 02:00:00 0.8 13 Nordeste 22 Nordeste 0 -- -- 91
2019-12-03 01:00:00 1.8 11 Nordeste 34 Nordeste 0 -- -- 88
2019-12-03 00:00:00 2.2 18 Nordeste 28 Nordeste 0 -- -- 88
2019-12-02 23:00:00 2.9 16 Nordeste 37 Nordeste 0 -- -- 87
2019-12-02 22:00:00 3.7 24 Nordeste 47 Nordeste 0 -- -- 85
2019-12-02 21:00:00 4.6 26 Nordeste 42 Nordeste 0 -- -- 85
2019-12-02 20:00:00 5.5 26 Nordeste 45 Nordeste 0 -- -- 85
2019-12-02 19:00:00 6.3 23 Nordeste 33 Nordeste 0 -- -- 84
2019-12-02 18:00:00 7 22 Nordeste 43 Nordeste 0 -- -- 79
2019-12-02 17:00:00 7.6 29 Nordeste 52 Nordeste 0 -- -- 77
2019-12-02 16:00:00 8.5 36 Nordeste 53 Nordeste 0 -- -- 70
2019-12-02 15:00:00 8.4 37 Nordeste 55 Nordeste 0 -- -- 74
2019-12-02 14:00:00 8.1 38 Nordeste 49 Nordeste 0 -- -- 77
2019-12-02 13:00:00 7.5 32 Nordeste 45 Nordeste 0 -- -- 79
2019-12-02 12:00:00 6.4 30 Nordeste 45 Nordeste 0 -- -- 85
2019-12-02 11:00:00 5.5 28 Nordeste 42 Nordeste 0 -- -- 88
2019-12-02 10:00:00 5 28 Nordeste 39 Nordeste 0 -- -- 90
2019-12-02 09:00:00 3.8 25 Nordeste 39 Nordeste 0 -- -- 92
2019-12-02 08:00:00 3.3 23 Nordeste 39 Nordeste 0 -- -- 93
2019-12-02 07:00:00 3.6 24 Nordeste 40 Nordeste 0 -- -- 92
2019-12-02 06:00:00 4 26 Nordeste 39 Nordeste 0 -- -- 90
2019-12-02 05:00:00 4.5 25 Nordeste 41 Nordeste 0 -- -- 89
2019-12-02 04:00:00 5.1 24 Nordeste 36 Nordeste 0 -- -- 89
2019-12-02 03:00:00 5.5 26 Nordeste 37 Nordeste 0 -- -- 88
2019-12-02 02:00:00 5.6 21 Nordeste 31 Nordeste 0 -- -- 88
2019-12-02 01:00:00 5.2 20 Nordeste 28 Nordeste 0 -- -- 90
2019-12-02 00:00:00 5.4 15 Nordeste 24 Nordeste 0 -- -- 92
2019-12-01 23:00:00 6.2 14 Nordeste 21 Nordeste 0 -- -- 90
2019-12-01 22:00:00 6.1 17 Nordeste 34 Nordeste 0 -- -- 92
2019-12-01 21:00:00 6.5 22 Nordeste 33 Nordeste 0 -- -- 91
2019-12-01 20:00:00 6.5 18 Nordeste 30 Norte 0 -- -- 92
2019-12-01 19:00:00 7.1 17 Nordeste 24 Nordeste 0 -- -- 91
2019-12-01 18:00:00 7.8 20 Nordeste 28 Nordeste 0 -- -- 87
2019-12-01 17:00:00 8.3 14 Nordeste 26 Nordeste 0 -- -- 88
2019-12-01 16:00:00 7.9 15 Nordeste 30 Norte 0.4 -- -- 91
2019-12-01 15:00:00 10.3 18 Nordeste 29 Norte 0 -- -- 78
2019-12-01 14:00:00 10.1 8 Este 13 Este 0 -- -- 74
2019-12-01 13:00:00 9.9 3 Norte 11 Oeste 0 -- -- 79
2019-12-01 12:00:00 9.3 6 Sudoeste 16 Sur 0 -- -- 85
2019-12-01 11:00:00 7.6 4 Sudeste 8 Sur 0 -- -- 94
2019-12-01 10:00:00 6.1 5 Sur 19 Sudoeste 0 -- -- 94
2019-12-01 09:00:00 6.1 12 Sur 20 Sudoeste 0 -- -- 95
2019-12-01 08:00:00 6.2 11 Sur 27 Sur 1.8 -- -- 95
2019-12-01 07:00:00 6.8 12 Sudoeste 24 Sudoeste 1.2 -- -- 95
2019-12-01 06:00:00 6.7 10 Sur 28 Sur 0.4 -- -- 95
2019-12-01 05:00:00 7 15 Sudoeste 30 Sur 0.4 -- -- 92
2019-12-01 04:00:00 6.7 12 Sur 22 Sur 0 -- -- 91
2019-12-01 03:00:00 5.8 12 Sur 22 Sur 0 -- -- 92
2019-12-01 02:00:00 5 12 Sur 20 Sur 0 -- -- 90
2019-12-01 01:00:00 4.9 11 Sudeste 17 Sur 0 -- -- 93
2019-12-01 00:00:00 5 8 Sur 15 Sur 0 -- -- 94
2019-11-30 23:00:00 5.4 9 Sur 20 Sudoeste 0 -- -- 95
2019-11-30 22:00:00 5.7 15 Sudoeste 24 Sudoeste 0 -- -- 97
2019-11-30 21:00:00 5.9 9 Sur 16 Oeste 0 -- -- 94
2019-11-30 20:00:00 7 13 Sudoeste 24 Sudoeste 0 -- -- 92
2019-11-30 19:00:00 7.8 11 Oeste 26 Sudoeste 0 -- -- 94
2019-11-30 18:00:00 8.1 14 Oeste 29 Oeste 0.8 -- -- 95
2019-11-30 17:00:00 8.5 22 Oeste 38 Oeste 0.2 -- -- 91
2019-11-30 16:00:00 10.2 20 Oeste 46 Oeste 0 -- -- 95
2019-11-30 15:00:00 10.6 18 Oeste 41 Sudoeste 6.2 -- -- 97
2019-11-30 14:00:00 12.4 24 Sudoeste 43 Sudoeste 0.8 -- -- 94
2019-11-30 13:00:00 12.2 24 Sudoeste 45 Sudoeste 0.4 -- -- 95
2019-11-30 12:00:00 12.3 24 Sudoeste 51 Sudoeste 0.2 -- -- 92
2019-11-30 11:00:00 12.8 25 Sudoeste 46 Sur 0 -- -- 87
2019-11-30 10:00:00 12.1 27 Sudoeste 45 Sudoeste 0 -- -- 89
2019-11-30 09:00:00 12.1 26 Sudoeste 48 Sur 0 -- -- 88
2019-11-30 08:00:00 11.8 28 Sur 40 Sudoeste 0 -- -- 90
2019-11-30 07:00:00 11.7 22 Sudoeste 38 Sur 0 -- -- 90
2019-11-30 06:00:00 11.8 19 Sudoeste 34 Sur 0 -- -- 91
2019-11-30 05:00:00 11.8 19 Sudoeste 31 Sur 0 -- -- 91
2019-11-30 04:00:00 11.7 11 Sudoeste 21 Sudoeste 0 -- -- 92
2019-11-30 03:00:00 11.9 12 Sudoeste 25 Sudoeste 0 -- -- 93
2019-11-30 02:00:00 12.1 17 Sudoeste 33 Sudoeste 0 -- -- 92
2019-11-30 01:00:00 12.1 9 Sudoeste 21 Sudoeste 0 -- -- 94
2019-11-30 00:00:00 12.2 10 Sudoeste 17 Sudoeste 0 -- -- 95
2019-11-29 23:00:00 12 5 Sudoeste 17 Sudoeste 0 -- -- 96
2019-11-29 22:00:00 12 11 Sudoeste 23 Sudoeste 0 -- -- 96
2019-11-29 21:00:00 12.4 15 Sudoeste 26 Sudoeste 0 -- -- 95
2019-11-29 20:00:00 12.5 13 Sudoeste 20 Sudoeste 0 -- -- 96
2019-11-29 19:00:00 12.2 10 Sur 15 Sudeste 0 -- -- 95
2019-11-29 18:00:00 12.8 7 Sudoeste 18 Sudoeste 0 -- -- 92
2019-11-29 17:00:00 13.4 11 Sudoeste 21 Sudoeste 0 -- -- 90
2019-11-29 16:00:00 13.7 9 Sudoeste 22 Sudoeste 0 -- -- 89
2019-11-29 15:00:00 13.4 15 Sudoeste 23 Sudoeste 0 -- -- 90
2019-11-29 14:00:00 13.3 14 Sudoeste 24 Sudoeste 0 -- -- 91
2019-11-29 13:00:00 12.8 14 Sur 22 Sudoeste 0.2 -- -- 96
2019-11-29 12:00:00 12.2 9 Sudoeste 18 Sudoeste 0 -- -- 97
2019-11-29 11:00:00 12.1 10 Sudoeste 18 Sudoeste 0 -- -- 99
2019-11-29 10:00:00 11.8 9 Sudoeste 19 Sudoeste 0.2 -- -- 99
2019-11-29 09:00:00 11.6 10 Sudoeste 21 Sur 0.2 -- -- 99
2019-11-29 08:00:00 11.6 14 Sudoeste 22 Sudoeste 0.2 -- -- 99
2019-11-29 07:00:00 11.5 16 Sudoeste 24 Sudoeste 1.6 -- -- 98
2019-11-29 06:00:00 11.4 11 Sudoeste 21 Sudoeste 0.8 -- -- 98
2019-11-29 05:00:00 11.3 14 Sudoeste 23 Sudoeste 0.2 -- -- 98
2019-11-29 04:00:00 11.3 10 Sudoeste 21 Sudoeste 0.2 -- -- 98
2019-11-29 03:00:00 11.3 14 Sudoeste 27 Sur 0.2 -- -- 96
2019-11-29 02:00:00 11.6 17 Sudoeste 31 Sudoeste 0 -- -- 93
2019-11-29 01:00:00 11.8 21 Sudoeste 37 Sudoeste 0 -- -- 90
2019-11-29 00:00:00 11.7 22 Sudoeste 39 Sudoeste 0 -- -- 89
2019-11-28 23:00:00 11.8 26 Sudoeste 42 Sudoeste 0 -- -- 88
2019-11-28 22:00:00 11.8 26 Sudoeste 40 Sudoeste 0 -- -- 86
2019-11-28 21:00:00 11.5 24 Sudoeste 42 Sudoeste 0 -- -- 85
2019-11-28 20:00:00 11.6 29 Sudoeste 44 Sudoeste 0 -- -- 84
2019-11-28 19:00:00 11.6 21 Sudoeste 36 Sudoeste 0 -- -- 84
2019-11-28 18:00:00 11.7 24 Sudoeste 39 Sudoeste 0 -- -- 83
2019-11-28 17:00:00 12 23 Sudoeste 40 Sudoeste 0 -- -- 79
2019-11-28 16:00:00 12.7 24 Sudoeste 45 Sudoeste 0 -- -- 78
2019-11-28 15:00:00 12.1 28 Sudoeste 48 Sur 0 -- -- 84
2019-11-28 14:00:00 12.8 26 Sudoeste 45 Sudoeste 0 -- -- 80
2019-11-28 13:00:00 11.9 24 Sudoeste 42 Sur 0 -- -- 82
2019-11-28 12:00:00 11.8 22 Sur 35 Sur 0 -- -- 81
2019-11-28 11:00:00 10.7 20 Sudoeste 33 Sudoeste 0 -- -- 88
2019-11-28 10:00:00 10.5 23 Sudoeste 36 Sudoeste 0 -- -- 85
2019-11-28 09:00:00 9.8 16 Sudoeste 32 Sudoeste 0 -- -- 90
2019-11-28 08:00:00 9.7 19 Sudoeste 36 Sudoeste 0 -- -- 91
2019-11-28 07:00:00 9.5 21 Sudoeste 36 Sudoeste 0 -- -- 90
2019-11-28 06:00:00 9.1 18 Sudoeste 31 Sudoeste 0 -- -- 91
2019-11-28 05:00:00 9.1 22 Sur 36 Sur 0 -- -- 92
2019-11-28 04:00:00 9.3 21 Sudoeste 35 Sudoeste 0 -- -- 91
2019-11-28 03:00:00 9 19 Sudoeste 33 Sudoeste 0 -- -- 91
2019-11-28 02:00:00 8.9 20 Sudoeste 34 Sudoeste 0 -- -- 90
2019-11-28 01:00:00 9 21 Sudoeste 30 Sudoeste 0 -- -- 88
2019-11-28 00:00:00 8.4 19 Sudoeste 35 Sur 0 -- -- 89
2019-11-27 23:00:00 8.7 22 Sudoeste 32 Sudoeste 0 -- -- 89
2019-11-27 22:00:00 8.7 17 Sudoeste 27 Sudoeste 0 -- -- 90
2019-11-27 21:00:00 8.9 17 Sudoeste 30 Sudoeste 0 -- -- 92
2019-11-27 20:00:00 9.3 16 Sudoeste 32 Sudoeste 0 -- -- 90
2019-11-27 19:00:00 9.8 17 Sudoeste 30 Oeste 0 -- -- 86
2019-11-27 18:00:00 9.6 13 Sudoeste 38 Sudoeste 0 -- -- 86
2019-11-27 17:00:00 10.5 16 Sudoeste 36 Sudoeste 0 -- -- 79
2019-11-27 16:00:00 11 22 Oeste 39 Oeste 0 -- -- 75
2019-11-27 15:00:00 11.4 23 Sudoeste 46 Sudoeste 0 -- -- 75
2019-11-27 14:00:00 10.8 22 Sudoeste 37 Sudoeste 0 -- -- 82
2019-11-27 06:00:00 -- -- -- -- -- -- -- -- --
2019-11-27 05:00:00 -- -- -- -- -- -- -- -- --
2019-11-27 04:00:00 7.4 13 Sudoeste 31 Sudoeste 0 -- -- 87
2019-11-27 03:00:00 8.1 19 Sudoeste 32 Sudoeste 0 -- -- 85
2019-11-27 02:00:00 8.2 24 Oeste 44 Sudoeste 0.2 -- -- 86
2019-11-27 01:00:00 9.1 23 Oeste 41 Sudoeste 0 -- -- 91
2019-11-27 00:00:00 9.4 22 Sudoeste 36 Sudoeste 0.4 -- -- 94
2019-11-26 23:00:00 10.1 22 Oeste 37 Oeste 0 -- -- 94
2019-11-26 22:00:00 10.3 23 Sudoeste 43 Sudoeste 1.4 -- -- 93
2019-11-26 21:00:00 11.7 22 Sudoeste 46 Sudoeste 0 -- -- 85
2019-11-26 20:00:00 12.1 28 Sudoeste 49 Sudoeste 0 -- -- 81
2019-11-26 19:00:00 12.4 26 Sudoeste 44 Sudoeste 0 -- -- 83
2019-11-26 18:00:00 13.2 27 Sudoeste 48 Sudoeste 0 -- -- 84
2019-11-26 17:00:00 13.7 34 Sudoeste 60 Sudoeste 0.2 -- -- 88
2019-11-26 16:00:00 14.1 34 Sudoeste 57 Sur 0 -- -- 85
2019-11-26 15:00:00 14.2 30 Sudoeste 46 Sudoeste 0 -- -- 85
2019-11-26 14:00:00 14.6 27 Sudoeste 58 Sudoeste 0 -- -- 82
2019-11-26 13:00:00 15.2 28 Sur 46 Sur 0 -- -- 79
2019-11-26 12:00:00 13.8 31 Sur 44 Sur 0 -- -- 85
2019-11-26 11:00:00 13.7 25 Sur 42 Sudoeste 0 -- -- 85
2019-11-26 10:00:00 12.1 23 Sur 39 Sur 0 -- -- 90
2019-11-26 09:00:00 11.5 19 Sudoeste 50 Sudoeste 1 -- -- 93
2019-11-26 08:00:00 12.3 21 Sudoeste 50 Sur 0 -- -- 85
2019-11-26 07:00:00 12 13 Sur 24 Sur 0 -- -- 88
2019-11-26 06:00:00 12.8 17 Sur 36 Sur 0 -- -- 86
2019-11-26 05:00:00 12.5 22 Sur 32 Sur 0 -- -- 87
2019-11-26 04:00:00 10.4 5 Sudoeste 12 Sudoeste 0 -- -- 93
2019-11-26 03:00:00 10.1 9 Sur 13 Sur 0 -- -- 89
2019-11-26 02:00:00 9.7 5 Sudoeste 13 Sur 0 -- -- 93
2019-11-26 01:00:00 9.1 5 Sur 8 Sur 0 -- -- 94
2019-11-26 00:00:00 9.4 7 Sur 16 Sudoeste 0 -- -- 94
2019-11-25 23:00:00 9.2 8 Sur 14 Sur 0 -- -- 93
2019-11-25 22:00:00 9.9 10 Sur 13 Sur 0 -- -- 91
2019-11-25 21:00:00 10.5 10 Sur 17 Sudoeste 0 -- -- 90
2019-11-25 20:00:00 10.5 8 Sudoeste 17 Sudoeste 0 -- -- 91
2019-11-25 19:00:00 10.4 9 Sudoeste 18 Oeste 0 -- -- 90
2019-11-25 18:00:00 11 10 Oeste 19 Oeste 0 -- -- 88
2019-11-25 17:00:00 11.8 10 Oeste 32 Oeste 0 -- -- 86
2019-11-25 16:00:00 12.4 17 Oeste 33 Oeste 0 -- -- 82
2019-11-25 15:00:00 13.2 20 Oeste 38 Sudoeste 0 -- -- 80
2019-11-25 14:00:00 13.4 23 Oeste 35 Sudoeste 0 -- -- 79
2019-11-25 13:00:00 13.2 17 Oeste 35 Oeste 0 -- -- 81
2019-11-25 12:00:00 12.1 19 Oeste 36 Sudoeste 0 -- -- 86
2019-11-25 11:00:00 11.7 23 Sudoeste 35 Sudoeste 0 -- -- 89
2019-11-25 10:00:00 10.9 15 Sudoeste 26 Sudoeste 0 -- -- 91
2019-11-25 09:00:00 9.2 14 Sudoeste 22 Sudoeste 0 -- -- 94
2019-11-25 08:00:00 8.9 8 Sudoeste 26 Sudoeste 0 -- -- 92
2019-11-25 07:00:00 9.9 13 Sudoeste 25 Sudoeste 0 -- -- 92
2019-11-25 06:00:00 10.1 16 Sudoeste 29 Sudoeste 0 -- -- 94
2019-11-25 05:00:00 10.2 16 Sur 24 Sur 0 -- -- 95
2019-11-25 04:00:00 10.2 16 Sudoeste 29 Sudoeste 0 -- -- 96
2019-11-25 03:00:00 10.1 15 Sudoeste 33 Sudoeste 0.4 -- -- 98
2019-11-25 02:00:00 10.2 19 Sudoeste 41 Sudoeste 0 -- -- 95
2019-11-25 01:00:00 10.5 24 Sudoeste 56 Sur 0.2 -- -- 94
2019-11-25 00:00:00 10.8 32 Sudoeste 52 Sudoeste 0 -- -- 91
2019-11-24 23:00:00 11 33 Sudoeste 53 Sudoeste 0 -- -- 87
2019-11-24 22:00:00 10.8 27 Sur 42 Sur 0 -- -- 85
2019-11-24 21:00:00 10.2 24 Sudoeste 42 Sur 0 -- -- 87
2019-11-24 20:00:00 9.4 21 Sudoeste 39 Sudoeste 0 -- -- 89
2019-11-24 19:00:00 9.1 28 Sudoeste 43 Sudoeste 0 -- -- 88
2019-11-24 18:00:00 9.1 21 Sudoeste 34 Sudoeste 0 -- -- 85
2019-11-24 17:00:00 9.4 20 Sudoeste 31 Sudoeste 0 -- -- 81
2019-11-24 16:00:00 10.3 16 Sudoeste 28 Sudoeste 0 -- -- 77
2019-11-24 15:00:00 9.7 18 Sudoeste 29 Sudoeste 0 -- -- 76
2019-11-24 14:00:00 9 15 Sudoeste 23 Sudoeste 0 -- -- 78
2019-11-24 13:00:00 8.4 11 Sudoeste 22 Sur 0 -- -- 85
2019-11-24 12:00:00 7.5 10 Sudoeste 20 Sur 0 -- -- 89
2019-11-24 11:00:00 5.6 13 Sudoeste 21 Sudoeste 0 -- -- 93
2019-11-24 10:00:00 4.7 10 Sudoeste 18 Sudoeste 0 -- -- 95
2019-11-24 09:00:00 3.7 11 Sur 15 Sur 0.2 -- -- 97
2019-11-24 08:00:00 3 10 Sur 18 Sur 0 -- -- 97
2019-11-24 07:00:00 2.8 12 Sudoeste 18 Sur 0 -- -- 98
2019-11-24 06:00:00 2.6 10 Sudoeste 16 Sudoeste 0 -- -- 98
2019-11-24 05:00:00 2.7 8 Sudoeste 14 Sur 0 -- -- 98
2019-11-24 04:00:00 3 9 Sudoeste 15 Sudoeste 0 -- -- 98
2019-11-24 03:00:00 3.3 8 Sudoeste 20 Sudoeste 0 -- -- 96
2019-11-24 02:00:00 3.8 12 Sudoeste 23 Sudoeste 0 -- -- 96
2019-11-24 01:00:00 4.6 17 Sudoeste 25 Sudoeste 0 -- -- 95
2019-11-24 00:00:00 4.3 9 Sudoeste 22 Sur 0 -- -- 95
2019-11-23 23:00:00 4.9 9 Sur 19 Sudoeste 0 -- -- 93
2019-11-23 22:00:00 5.1 17 Sudoeste 25 Oeste 0 -- -- 90
2019-11-23 21:00:00 5.3 15 Oeste 23 Oeste 0 -- -- 87
2019-11-23 20:00:00 5.8 12 Sudoeste 21 Sudoeste 0 -- -- 85
2019-11-23 19:00:00 6.5 9 Sudoeste 15 Sudoeste 0 -- -- 79
2019-11-23 18:00:00 7.6 7 Sudoeste 31 Oeste 0 -- -- 76
2019-11-23 17:00:00 9.1 21 Oeste 35 Oeste 0 -- -- 69
2019-11-23 16:00:00 8.6 16 Oeste 29 Noroeste 0 -- -- 72
2019-11-23 15:00:00 8.8 20 Noroeste 39 Oeste 0 -- -- 69
2019-11-23 14:00:00 9 21 Oeste 41 Oeste 0 -- -- 73
2019-11-23 13:00:00 8.5 23 Oeste 36 Oeste 0 -- -- 78
2019-11-23 12:00:00 7.3 18 Oeste 32 Oeste 0 -- -- 79
2019-11-23 11:00:00 6.7 15 Oeste 27 Sudoeste 0 -- -- 83
2019-11-23 10:00:00 5.4 12 Sudoeste 23 Sudoeste 0 -- -- 88
2019-11-23 09:00:00 4.8 14 Sudoeste 29 Oeste 0 -- -- 91
2019-11-23 08:00:00 4.5 12 Sudoeste 29 Sudoeste 0 -- -- 90
2019-11-23 07:00:00 4.5 19 Sudoeste 35 Sudoeste 0 -- -- 88
2019-11-23 06:00:00 4.3 18 Sudoeste 33 Sudoeste 0 -- -- 89
2019-11-23 05:00:00 4.6 22 Sudoeste 40 Oeste 0 -- -- 88
2019-11-23 04:00:00 5.1 26 Oeste 44 Oeste 0 -- -- 86
2019-11-23 03:00:00 5.7 28 Oeste 48 Oeste 0 -- -- 84
2019-11-23 02:00:00 5.8 21 Oeste 42 Sudoeste 0 -- -- 86
2019-11-23 01:00:00 5.8 27 Oeste 53 Sudoeste 0 -- -- 88
2019-11-23 00:00:00 6.2 30 Oeste 51 Oeste 0.4 -- -- 88
2019-11-22 23:00:00 7 27 Oeste 54 Oeste 0.6 -- -- 90
2019-11-22 22:00:00 7.6 25 Sudoeste 53 Sudoeste 1.2 -- -- 90
2019-11-22 21:00:00 8 20 Sudoeste 43 Sudoeste 0.4 -- -- 91
2019-11-22 20:00:00 8.6 22 Sudoeste 46 Sudoeste 0 -- -- 85
2019-11-22 19:00:00 8.7 35 Sudoeste 57 Sudoeste 0.2 -- -- 84
2019-11-22 18:00:00 9.2 24 Oeste 57 Sudoeste 0 -- -- 83
2019-11-22 17:00:00 10 40 Sudoeste 61 Sudoeste 0.2 -- -- 73
2019-11-22 16:00:00 10.5 29 Oeste 61 Sudoeste 0 -- -- 76
2019-11-22 15:00:00 12.1 24 Sudoeste 48 Sudoeste 0.2 -- -- 84
2019-11-22 14:00:00 11.7 27 Sudoeste 50 Sudoeste 0.2 -- -- 89
2019-11-22 13:00:00 11.7 26 Sudoeste 45 Sudoeste 0.4 -- -- 92
2019-11-22 12:00:00 10.8 26 Sur 53 Sur 1.8 -- -- 91
2019-11-22 11:00:00 10.4 36 Sur 62 Sur 0 -- -- 86
2019-11-22 10:00:00 10.6 25 Sur 56 Sur 0 -- -- 82
2019-11-22 09:00:00 9.7 26 Sur 49 Sur 0 -- -- 86
2019-11-22 08:00:00 8.9 26 Sur 46 Sur 0.2 -- -- 88
2019-11-22 07:00:00 8 22 Sur 35 Sur 0 -- -- 90
2019-11-22 06:00:00 7.4 18 Sur 28 Sur 0 -- -- 93
2019-11-22 05:00:00 7.2 14 Sur 29 Sur 0 -- -- 94
2019-11-22 04:00:00 7.6 15 Sur 26 Sur 0 -- -- 93
2019-11-22 03:00:00 7.3 12 Sur 19 Sur 0 -- -- 94
2019-11-22 02:00:00 6.8 9 Sur 15 Sur 0 -- -- 94
2019-11-22 01:00:00 7 11 Sudoeste 18 Sudoeste 0 -- -- 92
2019-11-22 00:00:00 6.9 11 Sur 18 Sur 0 -- -- 94
2019-11-21 23:00:00 6.8 5 Sur 12 Sur 0 -- -- 95
2019-11-21 22:00:00 7 8 Sur 13 Sur 0 -- -- 94
2019-11-21 21:00:00 6.9 4 Sur 8 Sur 0.6 -- -- 95
2019-11-21 20:00:00 6.9 3 Sudoeste 12 Sur 0 -- -- 93
2019-11-21 19:00:00 7.2 8 Sur 12 Sudoeste 0.2 -- -- 91
2019-11-21 18:00:00 8.1 7 Sudoeste 19 Sudoeste 0 -- -- 82
2019-11-21 17:00:00 8.9 13 Sudoeste 27 Sudoeste 0.2 -- -- 79
2019-11-21 16:00:00 9.8 15 Sudoeste 26 Sudoeste 0 -- -- 74
2019-11-21 15:00:00 9.2 13 Sudoeste 23 Oeste 0 -- -- 81
2019-11-21 14:00:00 7.7 10 Sudoeste 29 Oeste 1.6 -- -- 87
2019-11-21 13:00:00 8.1 7 Oeste 28 Sudoeste 0.8 -- -- 90
2019-11-21 12:00:00 8.8 16 Sudoeste 27 Sudoeste 0 -- -- 88
2019-11-21 11:00:00 7.6 13 Sudoeste 25 Sudoeste 0.8 -- -- 95
2019-11-21 10:00:00 6.9 10 Sudoeste 19 Sudoeste 0 -- -- 96
2019-11-21 09:00:00 6.4 12 Sudoeste 21 Sudoeste 0.6 -- -- 96
2019-11-21 08:00:00 6.2 9 Sudoeste 28 Sudoeste 0.4 -- -- 95
2019-11-21 07:00:00 6.3 13 Sudoeste 28 Sudoeste 0 -- -- 93
2019-11-21 06:00:00 5.9 15 Sur 23 Sur 0.2 -- -- 95
2019-11-21 05:00:00 5.7 14 Sudoeste 24 Sudoeste 0.4 -- -- 94
2019-11-21 04:00:00 5.5 11 Sudoeste 26 Sur 0 -- -- 93
2019-11-21 03:00:00 4.6 12 Sur 20 Sur 0 -- -- 96
2019-11-21 02:00:00 4.4 10 Sudoeste 15 Sudoeste 0 -- -- 95
2019-11-21 01:00:00 5 6 Sudoeste 11 Sudoeste 0 -- -- 94
2019-11-21 00:00:00 4.8 6 Sur 13 Sur 0 -- -- 92
2019-11-20 23:00:00 4 8 Sur 19 Sur 0 -- -- 93
2019-11-20 22:00:00 4.4 9 Sur 20 Sur 0 -- -- 92
2019-11-20 21:00:00 5 8 Sur 16 Sur 0 -- -- 91
2019-11-20 20:00:00 5.5 11 Sur 20 Sur 0 -- -- 90
2019-11-20 19:00:00 5.7 9 Sur 14 Sudoeste 0 -- -- 91
2019-11-20 18:00:00 6 5 Sudoeste 21 Sur 0 -- -- 88
2019-11-20 17:00:00 7.1 10 Sur 24 Sudoeste 0 -- -- 87
2019-11-20 16:00:00 6.8 9 Sur 31 Sudoeste 0 -- -- 90
2019-11-20 15:00:00 7.2 15 Sudoeste 27 Sudoeste 0 -- -- 85
2019-11-20 14:00:00 7 10 Sur 22 Sudoeste 0 -- -- 85
2019-11-20 13:00:00 6.8 9 Sudoeste 16 Sur 0 -- -- 89
2019-11-20 12:00:00 6.1 13 Sur 23 Sudeste 0.2 -- -- 89
2019-11-20 11:00:00 5 10 Sur 23 Sur 1.2 -- -- 95
2019-11-20 10:00:00 4.6 14 Sur 23 Sudeste 2.2 -- -- 95
2019-11-20 09:00:00 4.4 10 Sur 23 Sur 2.2 -- -- 94
2019-11-20 08:00:00 4.8 13 Sur 22 Sur 1.4 -- -- 92
2019-11-20 07:00:00 4.7 5 Sudoeste 16 Sur 0 -- -- 94
2019-11-20 06:00:00 5.1 9 Sur 16 Sudeste 0.2 -- -- 90
2019-11-20 05:00:00 5.4 7 Sur 17 Sur 0 -- -- 92
2019-11-20 04:00:00 5.6 4 Sur 8 Sudoeste 0.2 -- -- 93
2019-11-20 03:00:00 5.5 3 Sudeste 7 Sur 1.4 -- -- 93
2019-11-20 02:00:00 5.4 3 Sur 9 Sur 0.4 -- -- 91
2019-11-20 01:00:00 6.3 4 Sur 10 Sudeste 0 -- -- 78
2019-11-20 00:00:00 6.4 4 Sur 10 Sudeste 0 -- -- 78
2019-11-19 23:00:00 6.4 6 Sudeste 12 Sudeste 0 -- -- 78
2019-11-19 22:00:00 6.4 4 Sudeste 6 Sudeste 0 -- -- 79
2019-11-19 21:00:00 6.8 2 Sudeste 13 Sudoeste 0 -- -- 78
2019-11-19 20:00:00 7 7 Sudoeste 11 Sudoeste 0 -- -- 75
2019-11-19 19:00:00 7.2 5 Sudoeste 12 Sudoeste 0 -- -- 74
2019-11-19 18:00:00 7.8 7 Sudoeste 15 Sudoeste 0 -- -- 70
2019-11-19 17:00:00 8.6 8 Sudoeste 18 Sudoeste 0 -- -- 67
2019-11-19 16:00:00 9.2 9 Sudoeste 18 Oeste 0 -- -- 62
2019-11-19 15:00:00 9.3 11 Oeste 19 Oeste 0 -- -- 62
2019-11-19 14:00:00 9.1 7 Sudoeste 15 Sudoeste 0 -- -- 62
2019-11-19 13:00:00 8.4 10 Sudoeste 17 Sudoeste 0 -- -- 63
2019-11-19 12:00:00 7.4 10 Sudoeste 15 Oeste 0 -- -- 76
2019-11-19 11:00:00 5.5 4 Sur 8 Sur 0 -- -- 87
2019-11-19 10:00:00 3.3 3 Sudeste 6 Sudeste 0 -- -- 96
2019-11-19 09:00:00 0 0 Calma 5 Sudeste 0 -- -- 96
2019-11-19 08:00:00 0.2 3 Sudeste 10 Sudeste 0 -- -- 96
2019-11-19 07:00:00 0.1 6 Sudeste 10 Sudeste 0 -- -- 96
2019-11-19 06:00:00 0.4 6 Sudeste 11 Sur 0 -- -- 95
2019-11-19 05:00:00 0.3 6 Sur 10 Sudeste 0 -- -- 96
2019-11-19 04:00:00 0.2 2 Sur 6 Este 0 -- -- 95
2019-11-19 03:00:00 1.1 2 Sur 8 Sur 0 -- -- 93
2019-11-19 02:00:00 1.7 5 Sur 10 Sudoeste 0 -- -- 93
2019-11-19 01:00:00 3.3 3 Sur 10 Sur 0 -- -- 90
2019-11-19 00:00:00 3.1 6 Sudeste 13 Sudeste 0 -- -- 91
2019-11-18 23:00:00 2.6 8 Sudeste 12 Sudeste 0 -- -- 91
2019-11-18 22:00:00 3.1 9 Sudeste 10 Sudeste 0 -- -- 92
2019-11-18 21:00:00 4.1 6 Sudeste 8 Sudeste 0 -- -- 90
2019-11-18 20:00:00 4.6 5 Sudoeste 8 Sudoeste 0 -- -- 88
2019-11-18 19:00:00 5 4 Sudeste 5 Sudeste 0 -- -- 82
2019-11-18 18:00:00 7.8 0 Calma -- -- -- -- -- 71
2019-11-18 17:00:00 9.1 5 Nordeste 15 Noroeste 0 -- -- 62
2019-11-18 16:00:00 9.1 7 Norte 23 Norte 0 -- -- 66
2019-11-18 15:00:00 8.6 7 Noroeste 14 Noroeste 0 -- -- 72
2019-11-18 14:00:00 7.8 3 Nordeste 15 Norte 0 -- -- 74
2019-11-18 13:00:00 7.1 7 Noroeste 13 Noroeste 0 -- -- 80
2019-11-18 12:00:00 -- 7 Noroeste 10 Noroeste 0 -- -- --
2019-11-18 11:00:00 5 4 Sudeste 8 Sudeste 0 -- -- 93
2019-11-18 10:00:00 3 4 Sudoeste 8 Sudoeste 0 -- -- 99
2019-11-18 09:00:00 2.3 3 Sur 4 Sur 0 -- -- 100
2019-11-18 08:00:00 2.3 0 Calma 5 Norte 0 -- -- 99
2019-11-18 07:00:00 2.7 3 Norte 9 Oeste 0 -- -- 99
2019-11-18 06:00:00 2.4 7 Noroeste 10 Oeste 0 -- -- 99
2019-11-18 05:00:00 1.7 2 Oeste 9 Oeste 0 -- -- 99
2019-11-18 04:00:00 1.6 4 Oeste 9 Sudoeste 0 -- -- 97
2019-11-18 03:00:00 1.8 3 Sudoeste 8 Sudoeste 0 -- -- 95
2019-11-18 02:00:00 2.5 6 Sudoeste 17 Oeste 0 -- -- 93
2019-11-18 01:00:00 2.5 4 Sudoeste 11 Oeste 0 -- -- 93
2019-11-18 00:00:00 3.2 6 Oeste 19 Oeste 0 -- -- 91
2019-11-17 23:00:00 3.7 10 Oeste 22 Noroeste 0 -- -- 91
2019-11-17 22:00:00 4.3 13 Noroeste 28 Noroeste 0 -- -- 88
2019-11-17 21:00:00 5.3 9 Oeste 17 Noroeste 0 -- -- 90
2019-11-17 20:00:00 6.2 8 Oeste 26 Noroeste 0 -- -- 92
2019-11-17 19:00:00 7.6 19 Noroeste 34 Noroeste 0.4 -- -- 94
2019-11-17 18:00:00 8.2 16 Oeste 33 Oeste 0.2 -- -- 95
2019-11-17 17:00:00 8.8 15 Oeste 31 Oeste 0.4 -- -- 96
2019-11-17 16:00:00 9.3 18 Oeste 35 Oeste 0.6 -- -- 97
2019-11-17 15:00:00 9.5 17 Sudoeste 30 Oeste 0.4 -- -- 96
2019-11-17 14:00:00 9.2 18 Oeste 29 Sudoeste 0 -- -- 95
2019-11-17 13:00:00 8.5 19 Sudoeste 33 Sudoeste 0 -- -- 96
2019-11-17 12:00:00 8.2 17 Sudoeste 33 Sudoeste 0.4 -- -- 98
2019-11-17 11:00:00 6.8 19 Sudoeste 33 Sudoeste 0.4 -- -- 98
2019-11-17 10:00:00 6.4 16 Sudoeste 32 Sudoeste 0 -- -- 98
2019-11-17 09:00:00 5.9 14 Sudoeste 21 Sudoeste 0 -- -- 98
2019-11-17 08:00:00 4.9 9 Sudoeste 17 Sudeste 0 -- -- 98
2019-11-17 07:00:00 4.2 12 Sur 18 Sur 0 -- -- 96
2019-11-17 06:00:00 4.3 8 Sur 13 Sur 0 -- -- 94
2019-11-17 05:00:00 4 9 Sur 14 Sur 0 -- -- 94
2019-11-17 04:00:00 3.8 9 Sur 14 Sudoeste 0 -- -- 93
2019-11-17 03:00:00 3.7 8 Sur 13 Sur 0 -- -- 91
2019-11-17 02:00:00 4.2 6 Sudoeste 18 Sudoeste 0 -- -- 88
2019-11-17 01:00:00 4.1 9 Sudoeste 16 Sudoeste 0 -- -- 87
2019-11-17 00:00:00 3.5 9 Sudoeste 15 Sudoeste 0 -- -- 88
2019-11-16 23:00:00 3.8 9 Sudoeste 13 Sur 0 -- -- 85
2019-11-16 22:00:00 4.1 8 Oeste 15 Sudoeste 0 -- -- 82
2019-11-16 21:00:00 4.4 5 Sudoeste 13 Sudoeste 0 -- -- 79
2019-11-16 20:00:00 4.6 7 Sudoeste 21 Oeste 0 -- -- 76
2019-11-16 19:00:00 5.2 10 Oeste 19 Oeste 0 -- -- 76
2019-11-16 18:00:00 4.9 5 Oeste 17 Oeste 0 -- -- 79
2019-11-16 17:00:00 5.8 4 Sudoeste 25 Oeste 0 -- -- 75
2019-11-16 16:00:00 6.3 15 Oeste 25 Oeste 0 -- -- 73
2019-11-16 15:00:00 6.1 13 Oeste 21 Oeste 0 -- -- 76
2019-11-16 14:00:00 4.9 10 Oeste 22 Sudoeste 0 -- -- 83
2019-11-16 13:00:00 3.8 13 Oeste 26 Oeste 0 -- -- 85
2019-11-16 12:00:00 3.3 11 Sudoeste 19 Sudoeste 0 -- -- 90
2019-11-16 11:00:00 1.8 7 Sudoeste 13 Sudoeste 0 -- -- 96
2019-11-16 10:00:00 1.2 7 Oeste 12 Oeste 0 -- -- 99
2019-11-16 09:00:00 0.2 7 Oeste 13 Oeste 0 -- -- 98
2019-11-16 08:00:00 0 4 Sudoeste 9 Sudoeste 0 -- -- 98
2019-11-16 07:00:00 -0.3 2 Sur 9 Oeste 0 -- -- 98
2019-11-16 06:00:00 -1 4 Sudoeste 5 Sudoeste 0 -- -- 98
2019-11-16 05:00:00 -0.6 4 Sudoeste 9 Sudoeste 0 -- -- 97
2019-11-16 04:00:00 -0.6 5 Sudoeste 9 Oeste 0 -- -- 97
2019-11-16 03:00:00 -0.4 6 Sudoeste 9 Sudoeste 0 -- -- 96
2019-11-16 02:00:00 0 3 Sudoeste 7 Oeste 0 -- -- 95
2019-11-16 01:00:00 0.7 6 Oeste 12 Sudoeste 0 -- -- 94
2019-11-16 00:00:00 0.8 5 Sudoeste 11 Sudoeste 0 -- -- 92
2019-11-15 23:00:00 1.2 7 Sudoeste 11 Oeste 0 -- -- 89
2019-11-15 22:00:00 1.3 6 Sudoeste 12 Sudoeste 0 -- -- 87
2019-11-15 21:00:00 1.8 6 Oeste 22 Oeste 0 -- -- 83
2019-11-15 20:00:00 2.6 13 Oeste 24 Oeste 0 -- -- 81
2019-11-15 19:00:00 2.9 10 Oeste 23 Noroeste 0 -- -- 80
2019-11-15 18:00:00 4 14 Oeste 27 Noroeste 0 -- -- 75
2019-11-15 17:00:00 5.1 18 Noroeste 28 Oeste 0 -- -- 69
2019-11-15 16:00:00 5.4 15 Noroeste 30 Oeste 0 -- -- 70
2019-11-15 15:00:00 5.9 19 Noroeste 34 Noroeste 0 -- -- 68
2019-11-15 14:00:00 5.4 20 Noroeste 37 Noroeste 0 -- -- 70
2019-11-15 13:00:00 5 25 Noroeste 41 Oeste 0 -- -- 70
2019-11-15 12:00:00 4.5 19 Noroeste 36 Noroeste 0 -- -- 74
2019-11-15 11:00:00 3.8 22 Noroeste 34 Noroeste 0 -- -- 81
2019-11-15 10:00:00 2.1 12 Noroeste 25 Noroeste 0 -- -- 91
2019-11-15 09:00:00 1.8 14 Noroeste 27 Oeste 0 -- -- 90
2019-11-15 08:00:00 1.7 15 Oeste 26 Noroeste 0 -- -- 89
2019-11-15 07:00:00 1.4 13 Oeste 25 Oeste 0 -- -- 88
2019-11-15 06:00:00 1.5 10 Oeste 22 Oeste 0 -- -- 86
2019-11-15 05:00:00 2.2 13 Oeste 26 Oeste 0 -- -- 84
2019-11-15 04:00:00 2.4 14 Oeste 33 Oeste 0 -- -- 82
2019-11-15 03:00:00 2.4 17 Oeste 31 Noroeste -- -- -- 82
2019-11-15 02:00:00 2.7 16 Oeste 40 Noroeste 0 -- -- 79
2019-11-15 01:00:00 3.1 16 Oeste 26 Oeste 0 -- -- 81
2019-11-15 00:00:00 3.6 16 Oeste 35 Noroeste 0 -- -- 81